Time;durP1;ratioP1;P1;durP2;ratioP2;P2;SDS_P1;SDS_P2;PMS_P1;PMS_P2;Temp;Humidity;BMP_temperature;BMP_pressure;BME280_temperature;BME280_humidity;BME280_pressure;Samples;Min_cycle;Max_cycle;Signal;HPM_P1;HPM_P2
2023/05/15 00:01:42;;;;;;;8.27;6.63;;;;;;;11.79;100.00;100727.06;10378892;28;20042;-72
2023/05/15 00:06:43;;;;;;;9.38;6.80;;;;;;;11.26;100.00;100640.56;10379236;28;20037;-73
2023/05/15 00:11:44;;;;;;;10.40;7.25;;;;;;;11.80;100.00;100744.69;10379131;28;20056;-73
2023/05/15 00:16:44;;;;;;;9.50;7.35;;;;;;;11.76;100.00;100746.03;10377746;28;20387;-73
2023/05/15 00:21:45;;;;;;;12.02;8.10;;;;;;;11.61;100.00;100727.22;10377548;28;20046;-73
2023/05/15 00:26:46;;;;;;;12.02;8.27;;;;;;;11.68;100.00;100742.53;10378339;28;20045;-72
2023/05/15 00:31:47;;;;;;;11.52;6.50;;;;;;;11.67;100.00;100725.75;10378007;28;20049;-73
2023/05/15 00:36:48;;;;;;;13.27;6.20;;;;;;;11.70;100.00;100730.72;10401459;28;20041;-73
2023/05/15 00:41:50;;;;;;;10.85;6.35;;;;;;;11.38;100.00;100684.47;10417075;28;20568;-73
2023/05/15 00:46:53;;;;;;;8.07;6.38;;;;;;;11.69;100.00;100737.03;10418233;28;20068;-73
2023/05/15 00:52:00;;;;;;;11.25;6.03;;;;;;;11.10;100.00;100629.94;10417816;28;20065;-73
2023/05/15 00:57:04;;;;;;;9.52;5.63;;;;;;;11.59;100.00;100721.22;10417897;28;20069;-73
2023/05/15 01:02:05;;;;;;;8.75;6.20;;;;;;;11.64;100.00;100740.22;10417671;28;20531;-73
2023/05/15 01:07:06;;;;;;;9.30;5.88;;;;;;;11.53;100.00;100702.44;10416824;28;20076;-73
2023/05/15 01:12:08;;;;;;;10.98;5.93;;;;;;;11.67;100.00;100725.75;10416749;28;20033;-73
2023/05/15 01:17:08;;;;;;;17.42;5.68;;;;;;;11.67;100.00;100725.75;10416159;28;20081;-74
2023/05/15 01:22:38;;;;;;;20.13;6.25;;;;;;;11.75;100.00;100728.38;10397596;28;20073;-73
2023/05/15 01:27:47;;;;;;;9.18;5.50;;;;;;;11.66;100.00;100729.38;10383203;28;20050;-73
2023/05/15 01:33:02;;;;;;;17.50;5.45;;;;;;;11.66;100.00;100740.84;10406921;28;20511;-73
2023/05/15 01:38:35;;;;;;;12.63;4.97;;;;;;;11.59;100.00;100717.75;10416137;28;20057;-73
2023/05/15 01:43:41;;;;;;;7.07;4.70;;;;;;;11.35;100.00;100686.63;10415615;28;20076;-72
2023/05/15 01:48:45;;;;;;;5.78;5.00;;;;;;;11.54;100.00;100739.50;10411572;28;20065;-73
2023/05/15 01:53:46;;;;;;;17.70;5.07;;;;;;;11.56;100.00;100729.53;10374275;28;20041;-73
2023/05/15 01:58:48;;;;;;;16.13;5.20;;;;;;;11.49;100.00;100717.09;10374741;28;20069;-73
2023/05/15 02:03:49;;;;;;;34.72;6.45;;;;;;;11.56;100.00;100729.53;10372522;28;20045;-73
2023/05/15 02:08:51;;;;;;;10.52;4.00;;;;;;;11.54;100.00;100734.19;10374151;28;20564;-74
2023/05/15 02:13:58;;;;;;;18.80;5.32;;;;;;;11.42;100.00;100720.38;10374433;28;20050;-74
2023/05/15 02:18:58;;;;;;;6.32;4.10;;;;;;;11.56;100.00;100726.88;10374219;28;20393;-73
2023/05/15 02:23:59;;;;;;;11.85;4.93;;;;;;;11.53;100.00;100729.06;10373864;28;20048;-73
2023/05/15 02:29:05;;;;;;;9.40;3.90;;;;;;;11.20;100.00;100665.16;10373360;28;20045;-74
2023/05/15 02:34:25;;;;;;;15.73;3.75;;;;;;;11.74;100.00;100734.72;10391839;28;20491;-73
2023/05/15 02:39:28;;;;;;;12.40;4.05;;;;;;;11.79;100.00;100752.88;10391012;28;20131;-74
2023/05/15 02:44:30;;;;;;;7.60;4.18;;;;;;;11.94;100.00;100745.09;10372856;28;20081;-73
2023/05/15 02:49:31;;;;;;;6.68;3.92;;;;;;;12.13;100.00;100747.38;10366455;28;20045;-72
2023/05/15 02:54:32;;;;;;;8.55;4.50;;;;;;;12.29;100.00;100744.72;10365992;28;20088;-73
2023/05/15 02:59:34;;;;;;;6.10;4.55;;;;;;;12.37;100.00;100727.84;10367291;28;20115;-74
2023/05/15 03:04:35;;;;;;;33.70;4.55;;;;;;;12.29;100.00;100682.59;10371923;28;20497;-74
2023/05/15 03:09:35;;;;;;;9.80;4.47;;;;;;;12.77;100.00;100720.72;10371787;28;20042;-74
2023/05/15 03:14:36;;;;;;;6.20;3.95;;;;;;;13.30;100.00;100745.00;10372162;28;20457;-74
2023/05/15 03:19:37;;;;;;;5.47;3.75;;;;;;;13.80;100.00;100746.34;10371566;28;20037;-74
2023/05/15 03:24:37;;;;;;;6.90;3.70;;;;;;;13.98;100.00;100705.94;10371960;28;20042;-74
2023/05/15 03:29:38;;;;;;;9.38;3.47;;;;;;;14.79;100.00;100750.53;10371321;28;20046;-74
2023/05/15 03:34:39;;;;;;;5.40;3.70;;;;;;;15.18;100.00;100733.31;10383030;28;20045;-75
2023/05/15 03:39:40;;;;;;;5.65;2.90;;;;;;;15.82;100.00;100748.59;10378149;28;20045;-75
2023/05/15 03:44:40;;;;;;;5.03;2.70;;;;;;;16.21;98.75;100747.28;10412629;28;20057;-75
2023/05/15 03:49:41;;;;;;;4.80;2.67;;;;;;;17.03;94.92;100751.09;10386832;28;20030;-74
2023/05/15 03:54:42;;;;;;;4.45;2.58;;;;;;;17.88;90.38;100754.19;10370941;28;20046;-74
2023/05/15 03:59:43;;;;;;;3.78;2.33;;;;;;;18.42;86.46;100758.50;10371861;28;20058;-74
2023/05/15 04:04:44;;;;;;;6.30;2.60;;;;;;;18.22;85.08;100729.81;10370672;28;20044;-73
2023/05/15 04:09:44;;;;;;;5.13;2.40;;;;;;;18.78;83.75;100749.97;10370692;28;20133;-74
2023/05/15 04:14:45;;;;;;;7.00;2.97;;;;;;;18.60;83.11;100756.00;10375658;28;20125;-73
2023/05/15 04:19:46;;;;;;;6.63;2.72;;;;;;;18.44;81.59;100738.44;10378376;28;20048;-73
2023/05/15 04:24:47;;;;;;;6.25;2.70;;;;;;;18.44;81.05;100737.63;10377622;28;20045;-74
2023/05/15 04:29:48;;;;;;;8.30;2.50;;;;;;;18.99;79.22;100737.28;10378092;28;20045;-73
2023/05/15 04:34:49;;;;;;;7.63;2.72;;;;;;;19.08;76.54;100674.88;10377268;28;20042;-73
2023/05/15 04:39:50;;;;;;;4.72;2.72;;;;;;;19.64;73.86;100745.22;10377048;28;20046;-73
2023/05/15 04:44:51;;;;;;;6.68;2.65;;;;;;;19.89;71.06;100729.06;10373477;28;20210;-69
2023/05/15 04:49:52;;;;;;;5.53;2.65;;;;;;;19.96;70.05;100743.34;10375188;28;20045;-71
2023/05/15 04:54:54;;;;;;;5.45;2.92;;;;;;;19.88;68.14;100747.13;10377007;28;20042;-72
2023/05/15 04:59:56;;;;;;;7.55;2.97;;;;;;;19.50;67.56;100718.31;10377219;28;20064;-71
2023/05/15 05:04:57;;;;;;;7.53;2.90;;;;;;;19.19;68.39;100724.53;10375206;28;20513;-68
2023/05/15 05:09:58;;;;;;;7.32;2.75;;;;;;;18.90;68.62;100696.31;10375419;28;20077;-71
2023/05/15 05:14:59;;;;;;;6.47;3.17;;;;;;;18.20;68.81;100634.25;10392195;28;20446;-70
2023/05/15 05:20:00;;;;;;;6.45;3.03;;;;;;;18.17;69.29;100662.38;10375394;28;20044;-71
2023/05/15 05:25:01;;;;;;;5.20;2.80;;;;;;;18.42;68.76;100705.53;10375051;28;20059;-70
2023/05/15 05:30:02;;;;;;;5.43;2.97;;;;;;;18.57;69.00;100705.28;10375201;28;20143;-68
2023/05/15 05:35:03;;;;;;;6.75;2.80;;;;;;;18.82;68.92;100705.47;10374629;28;20049;-70
2023/05/15 05:40:05;;;;;;;8.98;3.10;;;;;;;18.74;67.75;100659.94;10375218;28;20088;-71
2023/05/15 05:45:06;;;;;;;5.10;2.25;;;;;;;19.35;67.18;100724.03;10374368;28;20042;-72
2023/05/15 05:50:07;;;;;;;6.05;2.20;;;;;;;18.94;66.89;100649.09;10374932;28;20124;-70
2023/05/15 05:55:08;;;;;;;6.80;2.70;;;;;;;19.62;66.85;100721.16;10373632;28;20461;-71
2023/05/15 06:00:10;;;;;;;9.90;2.85;;;;;;;20.01;66.40;100717.38;10411001;28;20068;-71
2023/05/15 06:05:11;;;;;;;6.53;2.40;;;;;;;20.02;65.50;100710.09;10415222;28;20509;-71
2023/05/15 06:10:12;;;;;;;7.78;3.22;;;;;;;20.25;66.14;100701.34;10413168;28;20091;-71
2023/05/15 06:15:15;;;;;;;7.93;2.28;;;;;;;20.39;64.47;100685.88;10373447;28;20041;-71
2023/05/15 06:20:15;;;;;;;6.15;3.28;;;;;;;20.83;65.24;100694.72;10373745;28;20125;-72
2023/05/15 06:25:17;;;;;;;8.45;2.70;;;;;;;20.69;64.26;100659.78;10373629;28;20132;-70
2023/05/15 06:30:18;;;;;;;11.88;5.35;;;;;;;20.37;63.91;100621.34;10373582;28;20042;-71
2023/05/15 06:35:19;;;;;;;6.75;2.67;;;;;;;20.95;63.63;100699.13;10372581;28;20431;-72
2023/05/15 06:40:20;;;;;;;4.57;2.28;;;;;;;20.96;63.24;100689.16;10372539;28;20034;-72
2023/05/15 06:45:21;;;;;;;7.70;2.05;;;;;;;21.32;62.04;100699.03;10372335;28;20045;-72
2023/05/15 06:50:22;;;;;;;5.05;1.73;;;;;;;20.84;59.94;100635.09;10372923;28;20040;-72
2023/05/15 06:55:22;;;;;;;3.97;1.73;;;;;;;20.82;59.81;100693.91;10372412;28;20495;-71
2023/05/15 07:00:23;;;;;;;9.95;3.15;;;;;;;20.39;59.84;100616.53;10372988;28;20049;-72
2023/05/15 07:05:24;;;;;;;6.75;2.30;;;;;;;20.35;59.76;100614.53;10371987;28;20100;-72
2023/05/15 07:10:25;;;;;;;4.20;2.03;;;;;;;21.15;57.18;100693.47;10371735;28;20052;-71
2023/05/15 07:15:25;;;;;;;3.35;1.60;;;;;;;21.61;55.69;100697.38;10372391;28;20042;-72
2023/05/15 07:20:26;;;;;;;3.38;1.83;;;;;;;21.82;54.89;100677.06;10372331;28;20049;-72
2023/05/15 07:25:27;;;;;;;3.17;1.80;;;;;;;21.63;54.03;100613.34;10372344;28;20046;-72
2023/05/15 07:30:28;;;;;;;3.13;1.70;;;;;;;22.01;53.99;100671.53;10372031;28;20046;-71
2023/05/15 07:35:29;;;;;;;5.05;1.88;;;;;;;21.74;53.93;100663.88;10371957;28;20537;-71
2023/05/15 07:40:30;;;;;;;4.95;1.88;;;;;;;22.28;54.78;100672.72;10371250;28;20119;-72
2023/05/15 07:45:31;;;;;;;5.35;2.08;;;;;;;22.64;52.90;100659.13;10371938;28;20053;-72
2023/05/15 07:50:31;;;;;;;4.38;2.08;;;;;;;22.66;53.21;100654.28;10377547;28;20049;-72
2023/05/15 07:55:32;;;;;;;2.60;1.48;;;;;;;22.40;52.41;100650.22;10377998;28;20041;-72
2023/05/15 08:00:33;;;;;;;5.20;1.83;;;;;;;22.68;53.72;100639.44;10379059;28;20050;-72
2023/05/15 08:05:34;;;;;;;25.33;17.52;;;;;;;22.86;53.04;100634.91;10379577;28;20041;-71
2023/05/15 08:10:35;;;;;;;12.52;4.07;;;;;;;22.36;52.21;100562.47;10379334;28;20469;-71
2023/05/15 08:15:35;;;;;;;7.82;2.50;;;;;;;23.08;52.07;100622.34;10385761;28;20424;-72
2023/05/15 08:20:37;;;;;;;5.63;2.00;;;;;;;23.59;51.72;100619.66;10419872;28;20095;-72
2023/05/15 08:25:38;;;;;;;3.30;1.90;;;;;;;23.54;50.66;100577.00;10418968;28;20056;-72
2023/05/15 08:30:39;;;;;;;5.30;1.92;;;;;;;23.93;49.62;100615.03;10378333;28;20038;-72
2023/05/15 08:35:39;;;;;;;7.10;1.90;;;;;;;23.13;50.90;100589.91;10377944;28;20037;-71
2023/05/15 08:40:45;;;;;;;4.30;1.83;;;;;;;23.20;49.56;100606.81;10377666;28;20206;-72
2023/05/15 08:45:47;;;;;;;20.83;1.98;;;;;;;23.14;48.93;100583.41;10376909;28;20456;-71
2023/05/15 08:50:49;;;;;;;3.80;1.80;;;;;;;23.63;48.38;100588.25;10377573;28;20042;-71
2023/05/15 08:55:51;;;;;;;6.13;1.73;;;;;;;22.77;47.77;100512.59;10376880;28;20058;-72
2023/05/15 09:00:51;;;;;;;4.30;1.67;;;;;;;22.51;49.21;100589.81;10375373;28;20077;-73
2023/05/15 09:05:53;;;;;;;2.72;1.60;;;;;;;21.69;49.26;100517.78;10383765;28;20069;-71
2023/05/15 09:10:56;;;;;;;3.67;1.60;;;;;;;21.70;48.47;100516.72;10376177;28;20050;-71
2023/05/15 09:15:57;;;;;;;4.20;1.50;;;;;;;22.92;48.80;100568.94;10378813;28;20100;-72
2023/05/15 09:21:22;;;;;;;2.50;1.27;;;;;;;23.68;46.46;100572.88;10384217;28;20300;-72
2023/05/15 09:26:23;;;;;;;4.05;1.70;;;;;;;23.92;46.72;100561.84;10375593;28;20050;-73
2023/05/15 09:31:26;;;;;;;2.72;1.52;;;;;;;23.59;44.02;100560.81;10375470;28;20108;-74
2023/05/15 09:36:27;;;;;;;2.72;1.38;;;;;;;23.23;46.06;100557.56;10375715;28;20045;-73
2023/05/15 09:41:28;;;;;;;3.22;1.50;;;;;;;23.10;45.85;100473.88;10375310;28;20045;-72
2023/05/15 09:46:29;;;;;;;5.30;1.60;;;;;;;23.39;46.17;100509.84;10375582;28;20037;-73
2023/05/15 09:51:30;;;;;;;3.85;1.90;;;;;;;23.35;46.28;100502.44;10374260;28;20104;-73
2023/05/15 09:56:32;;;;;;;4.15;1.60;;;;;;;22.92;46.53;100463.28;10374935;28;20085;-72
2023/05/15 10:01:35;;;;;;;6.13;1.60;;;;;;;22.60;46.13;100474.66;10374175;28;20038;-72
2023/05/15 10:06:38;;;;;;;2.97;1.50;;;;;;;23.44;45.25;100534.28;10374477;28;20050;-71
2023/05/15 10:11:42;;;;;;;3.75;1.30;;;;;;;24.02;44.58;100496.00;10373539;28;20045;-71
2023/05/15 10:16:44;;;;;;;2.50;1.40;;;;;;;24.34;44.22;100517.84;10373365;28;20046;-72
2023/05/15 10:21:46;;;;;;;3.47;1.25;;;;;;;24.19;43.21;100445.19;10373222;28;20042;-71
2023/05/15 10:26:48;;;;;;;2.70;1.20;;;;;;;24.36;43.34;100518.41;10373146;28;20124;-72
2023/05/15 10:31:49;;;;;;;3.65;1.40;;;;;;;23.82;43.74;100453.22;10373810;28;20486;-72
2023/05/15 10:36:50;;;;;;;3.97;1.60;;;;;;;24.40;43.79;100476.09;10373206;28;20041;-72
2023/05/15 10:41:52;;;;;;;4.30;1.30;;;;;;;25.19;42.75;100513.50;10373508;28;20054;-72
2023/05/15 10:46:54;;;;;;;4.07;1.55;;;;;;;24.80;42.54;100502.03;10372497;28;20525;-71
2023/05/15 10:51:59;;;;;;;2.58;1.40;;;;;;;24.36;41.37;100502.13;10373150;28;20038;-72
2023/05/15 10:57:00;;;;;;;2.35;1.40;;;;;;;23.69;42.14;100444.38;10372633;28;20524;-72
2023/05/15 11:02:23;;;;;;;3.45;1.33;;;;;;;23.32;43.09;100530.03;10372058;28;20058;-71
2023/05/15 11:07:25;;;;;;;3.70;1.50;;;;;;;22.02;47.75;100537.94;10372852;28;20037;-70
2023/05/15 11:13:01;;;;;;;15.10;1.45;;;;;;;20.20;56.28;100552.84;10371310;28;20042;-73
2023/05/15 11:18:06;;;;;;;27.73;3.88;;;;;;;17.56;68.84;100555.16;10372606;28;20038;-72
2023/05/15 11:23:08;;;;;;;6.90;2.90;;;;;;;16.49;68.45;100551.53;10373975;28;20054;-70
2023/05/15 11:28:21;;;;;;;10.02;2.10;;;;;;;15.76;81.69;100513.66;10385731;28;20087;-71
2023/05/15 11:33:22;;;;;;;9.30;2.80;;;;;;;15.87;75.05;100526.50;10383582;28;20481;-69
2023/05/15 11:38:24;;;;;;;10.18;2.67;;;;;;;16.09;77.79;100545.16;10380139;28;20092;-70
2023/05/15 11:43:27;;;;;;;13.15;2.92;;;;;;;16.24;80.18;100536.97;10379747;28;20120;-70
2023/05/15 11:48:33;;;;;;;19.25;5.20;;;;;;;15.94;82.94;100454.19;10379591;28;20088;-71
2023/05/15 11:53:34;;;;;;;8.80;2.47;;;;;;;16.55;79.07;100513.16;10385399;28;20044;-71
2023/05/15 11:58:37;;;;;;;12.35;3.30;;;;;;;16.93;80.29;100517.16;10393127;28;20149;-68
2023/05/15 12:03:38;;;;;;;7.45;4.40;;;;;;;16.58;78.81;100389.41;10387308;28;20502;-70
2023/05/15 12:08:40;;;;;;;15.48;3.70;;;;;;;17.77;77.06;100485.09;10379851;28;20042;-75
2023/05/15 12:13:41;;;;;;;10.15;4.35;;;;;;;18.68;74.99;100508.19;10392297;28;20049;-70
2023/05/15 12:18:42;;;;;;;8.93;3.50;;;;;;;19.06;73.13;100440.03;10415910;28;20041;-71
2023/05/15 12:23:51;;;;;;;9.13;3.55;;;;;;;20.04;69.78;100498.50;10378273;28;20042;-71
2023/05/15 12:28:53;;;;;;;8.40;3.00;;;;;;;20.40;68.54;100483.28;10377690;28;20057;-71
2023/05/15 12:33:55;;;;;;;3.20;1.40;;;;;;;20.98;66.72;100493.41;10377123;28;20034;-71
2023/05/15 12:38:56;;;;;;;3.45;1.30;;;;;;;20.94;64.48;100483.31;10377236;28;20077;-72
2023/05/15 12:43:57;;;;;;;2.65;1.25;;;;;;;20.97;64.61;100475.59;10372405;28;20050;-71
2023/05/15 12:48:58;;;;;;;5.00;1.30;;;;;;;21.04;62.47;100470.06;10390407;28;20041;-72
2023/05/15 12:53:59;;;;;;;5.28;1.00;;;;;;;20.89;61.92;100427.31;10388173;28;20048;-71
2023/05/15 12:59:00;;;;;;;3.38;1.20;;;;;;;20.96;61.79;100421.78;10389047;28;20144;-70
2023/05/15 13:04:02;;;;;;;11.85;1.45;;;;;;;21.32;61.55;100446.91;10393951;28;20052;-72
2023/05/15 13:09:03;;;;;;;2.55;1.00;;;;;;;21.36;59.77;100448.13;10398962;28;20045;-72
2023/05/15 13:14:10;;;;;;;1.50;0.70;;;;;;;21.29;57.44;100431.16;10398197;28;20048;-72
2023/05/15 13:19:11;;;;;;;4.40;0.90;;;;;;;21.34;57.68;100417.78;10394376;28;20065;-71
2023/05/15 13:24:12;;;;;;;1.95;1.00;;;;;;;21.53;57.41;100400.38;10390483;28;20128;-69
2023/05/15 13:29:12;;;;;;;3.08;0.70;;;;;;;21.68;56.75;100372.81;10405242;28;20128;-70
2023/05/15 13:34:13;;;;;;;1.60;0.93;;;;;;;22.03;55.61;100415.97;10395243;28;20096;-70
2023/05/15 13:39:14;;;;;;;2.00;1.00;;;;;;;22.49;55.55;100415.97;10389330;28;20042;-70
2023/05/15 13:44:15;;;;;;;1.40;0.70;;;;;;;22.92;53.57;100417.22;10394281;28;20498;-70
2023/05/15 13:49:16;;;;;;;1.13;0.80;;;;;;;23.32;53.06;100422.44;10387866;28;20042;-70
2023/05/15 13:54:16;;;;;;;4.35;1.23;;;;;;;23.18;52.47;100427.41;10391494;28;20041;-71
2023/05/15 13:59:17;;;;;;;3.25;1.02;;;;;;;22.24;52.29;100359.56;10397584;28;20061;-71
2023/05/15 14:04:19;;;;;;;17.48;1.52;;;;;;;22.38;52.44;100435.84;10414510;28;20041;-72
2023/05/15 14:09:20;;;;;;;2.22;1.05;;;;;;;21.95;52.78;100431.75;10412671;28;20106;-71
2023/05/15 14:14:21;;;;;;;5.88;1.45;;;;;;;21.73;53.41;100432.41;10415372;28;20103;-73
2023/05/15 14:19:21;;;;;;;2.08;1.10;;;;;;;21.49;54.04;100463.28;10414147;28;20052;-71
2023/05/15 14:24:22;;;;;;;1.83;1.13;;;;;;;21.04;53.61;100458.44;10414996;28;20091;-71
2023/05/15 14:29:23;;;;;;;2.78;1.20;;;;;;;20.20;54.29;100470.06;10414385;28;20073;-71
2023/05/15 14:34:24;;;;;;;2.40;1.17;;;;;;;19.74;55.17;100493.03;10407770;28;20128;-70
2023/05/15 14:39:25;;;;;;;3.13;1.10;;;;;;;18.97;54.98;100425.22;10412868;28;20037;-69
2023/05/15 14:44:26;;;;;;;1.85;0.90;;;;;;;18.98;54.76;100472.63;10369519;28;20570;-68
2023/05/15 14:49:26;;;;;;;29.35;1.63;;;;;;;18.33;55.03;100396.69;10406975;28;20452;-70
2023/05/15 14:54:28;;;;;;;1.38;0.77;;;;;;;18.83;54.90;100496.34;10413015;28;20057;-70
2023/05/15 14:59:29;;;;;;;2.20;1.10;;;;;;;18.61;55.27;100445.56;10413066;28;20049;-71
2023/05/15 15:04:33;;;;;;;1.15;0.70;;;;;;;18.64;56.73;100484.66;10378236;28;20060;-70
2023/05/15 15:09:33;;;;;;;;;;;;;;;18.66;56.87;100494.13;10373095;28;20069;-70
2023/05/15 15:14:34;;;;;;;1.98;1.15;;;;;;;18.38;58.68;100485.63;10372430;28;19964;-70
2023/05/15 15:19:35;;;;;;;6.78;1.25;;;;;;;18.16;59.44;100447.50;10372421;28;20037;-70
2023/05/15 15:24:35;;;;;;;1.65;0.80;;;;;;;18.29;59.71;100484.25;10371836;28;20038;-70
2023/05/15 15:29:36;;;;;;;4.55;0.90;;;;;;;17.86;60.85;100428.41;10371012;28;20168;-70
2023/05/15 15:34:37;;;;;;;10.68;1.48;;;;;;;18.14;62.24;100471.09;10371436;28;20080;-70
2023/05/15 15:39:38;;;;;;;2.35;1.13;;;;;;;18.05;63.15;100457.06;10371890;28;20038;-69
2023/05/15 15:44:38;;;;;;;4.05;1.40;;;;;;;18.11;63.92;100471.50;10371651;28;20050;-69
2023/05/15 15:49:40;;;;;;;3.03;1.45;;;;;;;18.15;62.60;100473.53;10371825;28;20096;-71
2023/05/15 15:54:45;;;;;;;3.60;1.20;;;;;;;18.00;62.74;100454.19;10370984;28;20050;-72
2023/05/15 15:59:48;;;;;;;2.72;1.00;;;;;;;17.64;63.24;100415.22;10371987;28;20058;-70
2023/05/15 16:04:48;;;;;;;4.53;1.30;;;;;;;17.99;63.95;100472.19;10367242;28;20038;-71
2023/05/15 16:09:49;;;;;;;7.75;1.25;;;;;;;17.79;65.58;100461.50;10406766;28;20436;-70
2023/05/15 16:14:50;;;;;;;12.77;1.77;;;;;;;17.66;66.47;100476.81;10419151;28;20513;-68
2023/05/15 16:19:51;;;;;;;4.80;1.15;;;;;;;17.45;68.09;100478.72;10418862;28;20120;-69
2023/05/15 16:24:52;;;;;;;5.10;1.75;;;;;;;16.87;68.57;100423.06;10412489;28;20034;-68
2023/05/15 16:29:52;;;;;;;4.78;2.17;;;;;;;16.98;70.36;100501.28;10378079;28;20064;-68
2023/05/15 16:34:53;;;;;;;27.10;3.05;;;;;;;16.29;71.17;100424.63;10377488;28;20042;-69
2023/05/15 16:39:54;;;;;;;5.93;2.30;;;;;;;16.67;71.77;100510.72;10377234;28;20037;-68
2023/05/15 16:44:55;;;;;;;20.58;2.63;;;;;;;16.25;72.18;100474.31;10377336;28;20057;-69
2023/05/15 16:49:55;;;;;;;9.10;2.58;;;;;;;16.41;73.25;100524.88;10404219;28;20048;-67
2023/05/15 16:54:56;;;;;;;13.52;3.55;;;;;;;16.19;75.06;100510.78;10376560;28;20128;-69
2023/05/15 16:59:57;;;;;;;16.25;3.10;;;;;;;15.61;76.65;100443.31;10377532;28;20095;-69
2023/05/15 17:04:58;;;;;;;10.30;2.20;;;;;;;15.75;77.06;100495.97;10376338;28;20509;-70
2023/05/15 17:09:59;;;;;;;8.63;2.20;;;;;;;15.81;78.02;100526.50;10376794;28;20042;-70
2023/05/15 17:15:00;;;;;;;7.13;1.90;;;;;;;15.64;79.58;100523.25;10376140;28;20085;-70
2023/05/15 17:20:01;;;;;;;11.32;2.60;;;;;;;15.52;80.80;100523.81;10374408;28;20215;-69
2023/05/15 17:25:03;;;;;;;6.07;2.60;;;;;;;15.58;81.43;100542.78;10375973;28;20050;-69
2023/05/15 17:30:04;;;;;;;8.88;2.75;;;;;;;15.63;81.46;100551.88;10375595;28;20048;-69
2023/05/15 17:35:07;;;;;;;27.77;13.55;;;;;;;15.62;80.77;100609.16;10375314;28;20121;-70
2023/05/15 17:40:08;;;;;;;6.93;2.53;;;;;;;15.71;77.15;100613.38;10376232;28;20041;-70
2023/05/15 17:45:09;;;;;;;5.43;3.10;;;;;;;16.15;73.44;100608.69;10412368;28;20136;-69
2023/05/15 17:50:10;;;;;;;3.38;1.73;;;;;;;16.44;72.00;100624.50;10414435;28;20045;-70
2023/05/15 17:55:11;;;;;;;5.93;3.45;;;;;;;16.52;71.55;100628.06;10396795;28;20057;-71
2023/05/15 18:00:12;;;;;;;4.95;2.72;;;;;;;16.62;71.14;100656.16;10375562;28;20065;-69
2023/05/15 18:05:13;;;;;;;3.50;1.85;;;;;;;16.55;70.89;100639.22;10374275;28;20037;-70
2023/05/15 18:10:14;;;;;;;5.53;2.15;;;;;;;16.48;70.92;100632.16;10374375;28;20042;-69
2023/05/15 18:15:15;;;;;;;3.15;1.70;;;;;;;16.59;71.32;100661.91;10373516;28;20144;-70
2023/05/15 18:20:16;;;;;;;2.75;1.70;;;;;;;15.87;73.28;100568.56;10372992;28;20095;-71
2023/05/15 18:25:17;;;;;;;7.20;2.80;;;;;;;15.91;76.37;100651.03;10373250;28;20046;-67
2023/05/15 18:30:18;;;;;;;7.13;2.35;;;;;;;15.31;80.63;100644.31;10374214;28;20049;-67
2023/05/15 18:35:18;;;;;;;6.43;2.30;;;;;;;14.68;83.36;100571.84;10372381;28;20378;-67
2023/05/15 18:40:20;;;;;;;5.22;2.70;;;;;;;15.06;86.02;100642.00;10376036;28;20049;-68
2023/05/15 18:45:24;;;;;;;10.23;2.70;;;;;;;14.91;92.00;100619.00;10412829;28;20057;-68
2023/05/15 18:50:25;;;;;;;7.50;3.40;;;;;;;14.82;90.87;100618.28;10413168;28;20112;-68
2023/05/15 18:55:28;;;;;;;4.93;3.22;;;;;;;14.60;92.43;100588.84;10413015;28;20069;-68
2023/05/15 19:00:29;;;;;;;9.63;6.30;;;;;;;14.68;94.08;100579.03;10413670;28;20064;-66
2023/05/15 19:05:32;;;;;;;7.05;3.50;;;;;;;14.91;95.33;100605.63;10408319;28;20037;-69
2023/05/15 19:10:33;;;;;;;10.13;4.32;;;;;;;14.77;95.56;100589.44;10406928;28;20072;-68
2023/05/15 19:15:34;;;;;;;5.75;3.90;;;;;;;14.81;97.38;100592.56;10412507;28;20111;-70
2023/05/15 19:20:34;;;;;;;6.55;4.10;;;;;;;14.80;98.64;100604.28;10413483;28;20044;-67
2023/05/15 19:25:35;;;;;;;6.18;3.22;;;;;;;14.70;99.49;100598.41;10412303;28;20041;-66
2023/05/15 19:30:36;;;;;;;4.38;2.97;;;;;;;14.57;99.10;100589.22;10412737;28;20037;-67
2023/05/15 19:35:37;;;;;;;10.50;3.55;;;;;;;14.48;98.87;100573.44;10412229;28;20621;-68
2023/05/15 19:40:37;;;;;;;4.63;2.83;;;;;;;14.71;98.44;100589.38;10400492;28;20046;-67
2023/05/15 19:45:40;;;;;;;6.15;2.22;;;;;;;14.81;96.50;100581.88;10397777;28;20050;-67
2023/05/15 19:50:43;;;;;;;8.32;2.80;;;;;;;14.85;94.83;100617.91;10395824;28;20057;-67
2023/05/15 19:55:44;;;;;;;4.38;2.55;;;;;;;14.83;94.48;100654.72;10379337;28;20061;-67
2023/05/15 20:00:46;;;;;;;4.80;2.25;;;;;;;14.49;94.27;100608.00;10379850;28;20041;-67
2023/05/15 20:05:47;;;;;;;4.63;2.15;;;;;;;13.74;93.72;100480.06;10378458;28;20054;-67
2023/05/15 20:10:51;;;;;;;5.53;2.22;;;;;;;14.60;95.12;100642.31;10379170;28;20441;-67
2023/05/15 20:15:55;;;;;;;5.15;2.47;;;;;;;14.44;95.09;100634.47;10379028;28;20065;-67
2023/05/15 20:20:56;;;;;;;;;;;;;;;14.71;96.74;100642.84;10378810;28;20048;-67
2023/05/15 20:25:57;;;;;;;5.13;3.15;;;;;;;14.03;95.07;100554.81;10377847;28;20011;-67
2023/05/15 20:30:59;;;;;;;5.95;3.10;;;;;;;14.43;99.39;100638.16;10377947;28;20120;-67
2023/05/15 20:36:01;;;;;;;4.68;2.90;;;;;;;13.89;100.00;100532.44;10377615;28;20041;-67
2023/05/15 20:41:02;;;;;;;5.97;2.70;;;;;;;14.34;100.00;100583.97;10377773;28;20052;-67
2023/05/15 20:46:06;;;;;;;7.00;2.63;;;;;;;14.24;100.00;100551.38;10377094;28;20038;-67
2023/05/15 20:51:06;;;;;;;5.20;2.70;;;;;;;14.25;100.00;100557.56;10377544;28;20091;-67
2023/05/15 20:56:07;;;;;;;3.15;2.47;;;;;;;14.29;100.00;100554.31;10375851;28;20107;-68
2023/05/15 21:01:08;;;;;;;3.53;2.40;;;;;;;14.27;100.00;100551.00;10377317;28;20429;-67
2023/05/15 21:06:09;;;;;;;3.97;2.28;;;;;;;14.31;100.00;100548.78;10376813;28;20108;-67
2023/05/15 21:11:09;;;;;;;3.75;2.88;;;;;;;13.85;100.00;100480.41;10377018;28;20513;-67
2023/05/15 21:16:10;;;;;;;7.28;3.55;;;;;;;14.13;100.00;100552.69;10375924;28;20045;-67
2023/05/15 21:21:11;;;;;;;8.27;2.60;;;;;;;13.98;100.00;100546.53;10376202;28;20052;-67
2023/05/15 21:26:12;;;;;;;4.50;2.60;;;;;;;13.89;100.00;100540.44;10375818;28;20044;-67
2023/05/15 21:31:13;;;;;;;3.22;2.42;;;;;;;13.74;100.00;100552.16;10376075;28;20456;-67
2023/05/15 21:36:13;;;;;;;4.13;2.63;;;;;;;13.48;100.00;100506.19;10376253;28;20042;-67
2023/05/15 21:41:14;;;;;;;4.68;3.00;;;;;;;13.56;100.00;100520.47;10375282;28;20037;-67
2023/05/15 21:46:15;;;;;;;7.75;3.03;;;;;;;13.70;100.00;100533.00;10385961;28;20037;-67
2023/05/15 21:51:16;;;;;;;7.72;2.70;;;;;;;13.25;100.00;100468.06;10374376;28;20042;-67
2023/05/15 21:56:16;;;;;;;4.30;3.05;;;;;;;13.14;100.00;100458.66;10373542;28;20137;-67
2023/05/15 22:01:17;;;;;;;7.40;3.30;;;;;;;13.48;100.00;100538.22;10374976;28;20080;-67
2023/05/15 22:06:18;;;;;;;5.55;3.50;;;;;;;13.35;100.00;100529.19;10374324;28;20096;-67
2023/05/15 22:11:19;;;;;;;5.00;3.55;;;;;;;12.74;100.00;100434.03;10374839;28;20453;-67
2023/05/15 22:16:20;;;;;;;11.63;3.25;;;;;;;13.15;100.00;100526.97;10374267;28;20128;-67
2023/05/15 22:21:21;;;;;;;16.08;3.33;;;;;;;13.01;100.00;100535.75;10373893;28;20046;-68
2023/05/15 22:26:22;;;;;;;5.40;3.63;;;;;;;12.82;100.00;100517.59;10373705;28;20049;-67
2023/05/15 22:31:23;;;;;;;5.65;4.05;;;;;;;12.79;100.00;100516.94;10374200;28;20037;-67
2023/05/15 22:36:23;;;;;;;7.45;3.40;;;;;;;12.61;100.00;100520.91;10373556;28;20052;-67
2023/05/15 22:41:24;;;;;;;5.38;4.00;;;;;;;12.40;100.00;100492.25;10372951;28;20057;-67
2023/05/15 22:46:25;;;;;;;7.55;4.10;;;;;;;12.44;100.00;100512.19;10373619;28;20053;-67
2023/05/15 22:51:28;;;;;;;6.80;4.03;;;;;;;12.36;100.00;100512.25;10372961;28;20092;-67
2023/05/15 22:56:29;;;;;;;7.35;3.80;;;;;;;12.32;100.00;100531.25;10373080;28;20058;-67
2023/05/15 23:01:30;;;;;;;5.68;3.83;;;;;;;12.27;100.00;100525.63;10372908;28;20115;-67